createdAt,value
2022-08-27T00:03:01.902Z,20.55
2022-08-27T00:06:04.863Z,20.51
2022-08-27T00:09:09.242Z,20.45
2022-08-27T00:12:12.934Z,20.41
2022-08-27T00:15:17.746Z,20.35
2022-08-27T00:18:22.770Z,20.34
2022-08-27T00:21:25.396Z,20.31
2022-08-27T00:24:28.454Z,20.27
2022-08-27T00:27:31.064Z,20.26
2022-08-27T00:30:33.676Z,20.21
2022-08-27T00:33:36.821Z,20.15
2022-08-27T00:36:39.592Z,20.13
2022-08-27T00:39:41.895Z,20.10
2022-08-27T00:42:46.045Z,20.07
2022-08-27T00:45:48.803Z,20.07
2022-08-27T00:48:52.533Z,20.04
2022-08-27T00:52:04.190Z,20.00
2022-08-27T00:55:11.893Z,19.97
2022-08-27T00:58:23.343Z,19.96
2022-08-27T01:01:28.141Z,19.94
2022-08-27T01:04:32.444Z,19.89
2022-08-27T01:07:37.762Z,19.85
2022-08-27T01:10:40.905Z,19.83
2022-08-27T01:13:59.361Z,19.82
2022-08-27T01:17:03.495Z,19.90
2022-08-27T01:20:09.405Z,19.90
2022-08-27T01:23:31.594Z,19.86
2022-08-27T01:26:36.609Z,19.81
2022-08-27T01:29:39.330Z,19.84
2022-08-27T01:32:43.107Z,19.84
2022-08-27T01:35:46.970Z,19.80
2022-08-27T01:38:50.395Z,19.89
2022-08-27T01:41:52.860Z,19.74
2022-08-27T01:44:58.010Z,19.70
2022-08-27T01:48:01.158Z,19.78
2022-08-27T01:51:04.160Z,19.67
2022-08-27T01:54:06.886Z,19.64
2022-08-27T01:57:09.884Z,19.51
2022-08-27T02:00:14.825Z,19.47
2022-08-27T02:03:18.503Z,19.44
2022-08-27T02:06:20.868Z,19.36
2022-08-27T02:09:23.635Z,19.35
2022-08-27T02:12:25.891Z,19.30
2022-08-27T02:15:28.888Z,19.22
2022-08-27T02:18:31.269Z,19.20
2022-08-27T02:21:34.404Z,19.18
2022-08-27T02:24:36.762Z,19.17
2022-08-27T02:27:41.296Z,19.11
2022-08-27T02:30:44.061Z,19.02
2022-08-27T02:33:47.177Z,18.99
2022-08-27T02:36:49.513Z,18.96
2022-08-27T02:39:52.190Z,18.88
2022-08-27T02:42:54.507Z,18.89
2022-08-27T02:45:57.430Z,18.85
2022-08-27T02:48:59.813Z,18.88
2022-08-27T02:52:03.778Z,18.84
2022-08-27T02:55:07.181Z,18.78
2022-08-27T02:58:10.137Z,18.76
2022-08-27T03:01:13.941Z,18.74
2022-08-27T03:04:16.776Z,18.68
2022-08-27T03:07:19.394Z,18.69
2022-08-27T03:10:22.296Z,18.66
2022-08-27T03:13:26.080Z,18.63
2022-08-27T03:16:28.810Z,18.59
2022-08-27T03:19:32.047Z,18.66
2022-08-27T03:22:34.758Z,18.66
2022-08-27T03:25:37.634Z,18.65
2022-08-27T03:28:40.639Z,18.64
2022-08-27T03:31:43.094Z,18.66
2022-08-27T03:34:45.791Z,18.59
2022-08-27T03:37:48.576Z,18.60
2022-08-27T03:40:51.616Z,18.57
2022-08-27T03:43:53.960Z,18.56
2022-08-27T03:46:56.671Z,18.54
2022-08-27T03:50:00.677Z,18.47
2022-08-27T03:53:03.188Z,18.47
2022-08-27T03:56:06.375Z,18.45
2022-08-27T03:59:09.037Z,18.46
2022-08-27T04:02:11.759Z,18.44
2022-08-27T04:05:17.611Z,18.42
2022-08-27T04:08:19.951Z,18.43
2022-08-27T04:11:22.548Z,18.46
2022-08-27T04:14:26.683Z,18.48
2022-08-27T04:17:30.088Z,18.50
2022-08-27T04:20:35.364Z,18.52
2022-08-27T04:23:38.867Z,18.51
2022-08-27T04:26:42.549Z,18.55
2022-08-27T04:29:45.104Z,18.57
2022-08-27T04:32:50.671Z,18.60
2022-08-27T04:36:03.935Z,18.57
2022-08-27T04:39:06.202Z,18.69
2022-08-27T04:42:08.746Z,18.82
2022-08-27T04:45:11.127Z,18.90
2022-08-27T04:48:14.767Z,18.99
2022-08-27T04:51:17.401Z,19.08
2022-08-27T04:54:26.006Z,19.08
2022-08-27T04:57:38.000Z,19.17
2022-08-27T05:00:41.954Z,19.22
2022-08-27T05:03:44.578Z,19.33
2022-08-27T05:06:50.568Z,19.43
2022-08-27T05:09:56.780Z,19.51
2022-08-27T05:13:00.058Z,19.60
2022-08-27T05:16:04.574Z,19.73
2022-08-27T05:19:09.018Z,19.79
2022-08-27T05:22:11.308Z,19.91
2022-08-27T05:25:13.920Z,20.08
2022-08-27T05:28:17.759Z,20.23
2022-08-27T05:31:23.097Z,20.47
2022-08-27T05:34:26.318Z,20.71
2022-08-27T05:37:29.573Z,20.95
2022-08-27T05:40:31.887Z,21.12
2022-08-27T05:43:35.712Z,21.25
2022-08-27T05:46:39.308Z,21.38
2022-08-27T05:49:41.879Z,21.57
2022-08-27T05:52:44.272Z,21.67
2022-08-27T05:55:46.850Z,21.75
2022-08-27T05:59:08.760Z,21.96
2022-08-27T06:02:11.719Z,22.28
2022-08-27T06:05:14.402Z,23.12
2022-08-27T06:08:16.922Z,23.70
2022-08-27T06:11:20.101Z,24.00
2022-08-27T06:14:22.556Z,24.31
2022-08-27T06:17:25.119Z,25.08
2022-08-27T06:20:27.576Z,29.29
2022-08-27T06:23:30.481Z,33.95
2022-08-27T06:26:32.821Z,36.95
2022-08-27T06:29:35.483Z,39.06
2022-08-27T06:32:37.725Z,37.60
2022-08-27T06:35:40.353Z,34.90
2022-08-27T06:38:43.267Z,32.88
2022-08-27T06:41:45.838Z,31.62
2022-08-27T06:44:48.197Z,31.49
2022-08-27T06:47:50.787Z,29.68
2022-08-27T06:50:53.136Z,29.14
2022-08-27T06:53:56.992Z,28.91
2022-08-27T06:56:59.674Z,30.28
2022-08-27T07:00:02.415Z,32.74
2022-08-27T07:03:06.402Z,36.34
2022-08-27T07:06:09.408Z,38.95
2022-08-27T07:09:12.416Z,41.40
2022-08-27T07:12:15.185Z,43.57
2022-08-27T07:15:18.168Z,43.94
2022-08-27T07:18:27.956Z,44.65
2022-08-27T07:21:30.720Z,41.62
2022-08-27T07:24:33.238Z,39.52
2022-08-27T07:27:35.848Z,39.87
2022-08-27T07:30:42.089Z,39.93
2022-08-27T07:33:46.020Z,36.90
2022-08-27T07:36:55.413Z,34.41
2022-08-27T07:39:57.780Z,33.09
2022-08-27T07:43:19.121Z,33.23
2022-08-27T07:46:22.308Z,34.79
2022-08-27T07:49:27.608Z,35.65
2022-08-27T07:52:29.934Z,37.59
2022-08-27T07:55:32.538Z,35.54
2022-08-27T07:58:35.510Z,34.17
2022-08-27T08:01:38.769Z,32.94
2022-08-27T08:04:41.376Z,32.42
2022-08-27T08:07:43.997Z,31.97
2022-08-27T08:10:48.159Z,30.78
2022-08-27T08:13:50.408Z,30.32
2022-08-27T08:16:53.087Z,30.51
2022-08-27T08:20:17.556Z,30.96
2022-08-27T08:23:19.054Z,30.91
2022-08-27T08:26:21.387Z,30.93
2022-08-27T08:29:25.375Z,30.70
2022-08-27T08:32:28.003Z,30.96
2022-08-27T08:35:34.901Z,30.61
2022-08-27T08:38:43.659Z,30.76
2022-08-27T08:41:55.243Z,30.56
2022-08-27T08:44:59.372Z,30.80
2022-08-27T08:48:08.193Z,30.40
2022-08-27T08:51:10.440Z,30.50
2022-08-27T08:54:18.650Z,30.23
2022-08-27T08:57:24.322Z,30.33
2022-08-27T09:00:27.918Z,30.23
2022-08-27T09:03:33.344Z,30.36
2022-08-27T09:06:52.966Z,30.49
2022-08-27T09:10:07.834Z,30.86
2022-08-27T09:13:18.654Z,30.57
2022-08-27T09:16:21.266Z,30.70
2022-08-27T09:19:24.662Z,30.81
2022-08-27T09:22:41.802Z,30.98
2022-08-27T09:25:45.900Z,31.33
2022-08-27T09:29:07.274Z,31.55
2022-08-27T09:32:10.546Z,31.84
2022-08-27T09:35:13.578Z,32.21
2022-08-27T09:38:42.507Z,31.53
2022-08-27T09:41:51.789Z,31.52
2022-08-27T09:44:55.564Z,31.87
2022-08-27T09:48:07.318Z,32.24
2022-08-27T09:51:12.479Z,32.86
2022-08-27T09:54:26.896Z,32.64
2022-08-27T09:57:40.548Z,32.79
2022-08-27T10:00:42.987Z,32.56
2022-08-27T10:03:45.592Z,32.56
2022-08-27T10:06:49.194Z,32.91
2022-08-27T10:10:01.594Z,33.00
2022-08-27T10:13:10.226Z,33.09
2022-08-27T10:16:33.796Z,33.29
2022-08-27T10:19:54.968Z,33.47
2022-08-27T10:22:57.680Z,33.32
2022-08-27T10:26:08.057Z,33.04
2022-08-27T10:29:16.549Z,33.08
2022-08-27T10:32:28.081Z,33.39
2022-08-27T10:35:51.855Z,33.65
2022-08-27T10:39:18.984Z,33.80
2022-08-27T10:42:26.571Z,33.76
2022-08-27T10:45:58.423Z,33.77
2022-08-27T10:49:06.192Z,33.88
2022-08-27T10:52:11.383Z,34.02
2022-08-27T10:55:20.951Z,34.14
2022-08-27T10:58:23.631Z,34.05
2022-08-27T11:01:49.068Z,34.26
2022-08-27T11:04:53.524Z,34.33
2022-08-27T11:08:17.335Z,34.11
2022-08-27T11:12:12.338Z,34.54
2022-08-27T11:14:53.185Z,34.00
2022-08-27T11:18:05.038Z,33.75
2022-08-27T11:21:16.857Z,33.71
2022-08-27T11:24:34.809Z,33.96
2022-08-27T11:27:39.381Z,34.33
2022-08-27T11:30:46.018Z,34.58
2022-08-27T11:33:58.082Z,34.51
2022-08-27T11:37:23.952Z,34.10
2022-08-27T11:40:50.906Z,33.82
2022-08-27T11:43:53.990Z,34.07
2022-08-27T11:46:58.439Z,34.41
2022-08-27T11:50:02.265Z,34.57
2022-08-27T11:53:06.520Z,34.47
2022-08-27T11:56:16.548Z,34.66
2022-08-27T11:59:19.150Z,34.47
2022-08-27T12:02:26.843Z,34.44
2022-08-27T12:05:37.918Z,34.50
2022-08-27T12:08:40.264Z,34.07
2022-08-27T12:11:45.852Z,34.31
2022-08-27T12:15:10.643Z,34.52
2022-08-27T12:18:22.380Z,33.95
2022-08-27T12:21:24.668Z,33.69
2022-08-27T12:24:30.742Z,34.00
2022-08-27T12:27:34.795Z,34.26
2022-08-27T12:30:39.277Z,34.46
2022-08-27T12:33:45.038Z,34.71
2022-08-27T12:36:49.083Z,34.55
2022-08-27T12:39:53.558Z,34.56
2022-08-27T12:43:07.293Z,34.12
2022-08-27T12:46:17.339Z,34.21
2022-08-27T12:49:38.381Z,34.35
2022-08-27T12:52:41.770Z,34.29
2022-08-27T12:55:52.672Z,34.21
2022-08-27T12:59:18.817Z,34.35
2022-08-27T13:02:31.782Z,33.99
2022-08-27T13:05:38.916Z,34.32
2022-08-27T13:08:41.545Z,34.26
2022-08-27T13:11:48.280Z,34.32
2022-08-27T13:14:57.091Z,34.40
2022-08-27T13:18:02.359Z,34.52
2022-08-27T13:21:21.298Z,34.33
2022-08-27T13:24:35.496Z,33.91
2022-08-27T13:27:38.280Z,33.82
2022-08-27T13:30:42.668Z,33.83
2022-08-27T13:33:45.463Z,33.70
2022-08-27T13:37:02.347Z,33.68
2022-08-27T13:40:05.220Z,33.85
2022-08-27T13:43:09.779Z,33.87
2022-08-27T13:46:14.107Z,33.95
2022-08-27T13:49:18.427Z,33.92
2022-08-27T13:52:25.183Z,33.90
2022-08-27T13:55:28.181Z,34.01
2022-08-27T13:58:32.284Z,34.09
2022-08-27T14:01:34.704Z,34.10
2022-08-27T14:04:37.372Z,33.77
2022-08-27T14:07:50.656Z,33.96
2022-08-27T14:10:59.474Z,34.05
2022-08-27T14:14:01.904Z,33.94
2022-08-27T14:17:05.020Z,34.00
2022-08-27T14:20:07.631Z,33.66
2022-08-27T14:23:12.140Z,33.56
2022-08-27T14:26:17.297Z,33.45
2022-08-27T14:29:20.891Z,33.59
2022-08-27T14:32:23.191Z,33.50
2022-08-27T14:35:26.333Z,33.12
2022-08-27T14:38:31.641Z,33.06
2022-08-27T14:41:34.939Z,32.98
2022-08-27T14:44:37.345Z,33.07
2022-08-27T14:47:41.835Z,33.03
2022-08-27T14:50:44.274Z,33.10
2022-08-27T14:53:46.916Z,33.08
2022-08-27T14:56:49.527Z,33.15
2022-08-27T14:59:52.127Z,33.14
2022-08-27T15:02:55.794Z,33.09
2022-08-27T15:05:58.343Z,33.15
2022-08-27T15:09:00.721Z,32.97
2022-08-27T15:12:04.602Z,32.87
2022-08-27T15:15:07.398Z,32.71
2022-08-27T15:18:10.305Z,32.55
2022-08-27T15:21:12.704Z,32.33
2022-08-27T15:24:22.406Z,32.09
2022-08-27T15:27:31.956Z,31.83
2022-08-27T15:30:41.210Z,31.44
2022-08-27T15:33:44.116Z,31.23
2022-08-27T15:36:46.793Z,31.07
2022-08-27T15:39:49.137Z,30.90
2022-08-27T15:42:56.823Z,30.74
2022-08-27T15:45:59.392Z,30.96
2022-08-27T15:49:02.037Z,30.87
2022-08-27T15:52:04.931Z,30.86
2022-08-27T15:55:12.879Z,30.68
2022-08-27T15:58:15.193Z,30.58
2022-08-27T16:01:26.785Z,30.44
2022-08-27T16:04:29.446Z,30.43
2022-08-27T16:07:31.796Z,30.32
2022-08-27T16:10:35.270Z,30.43
2022-08-27T16:13:37.914Z,30.14
2022-08-27T16:16:40.533Z,29.99
2022-08-27T16:19:43.631Z,29.87
2022-08-27T16:22:46.284Z,29.85
2022-08-27T16:25:48.583Z,29.68
2022-08-27T16:28:51.155Z,29.58
2022-08-27T16:32:00.548Z,29.41
2022-08-27T16:35:04.012Z,29.28
2022-08-27T16:38:06.507Z,29.31
2022-08-27T16:41:09.058Z,29.24
2022-08-27T16:44:11.580Z,29.22
2022-08-27T16:47:14.320Z,29.05
2022-08-27T16:50:35.038Z,28.85
2022-08-27T16:53:39.579Z,28.82
2022-08-27T16:56:42.919Z,28.61
2022-08-27T16:59:49.739Z,28.45
2022-08-27T17:02:52.247Z,28.35
2022-08-27T17:05:54.833Z,28.36
2022-08-27T17:08:59.508Z,28.12
2022-08-27T17:12:02.496Z,28.08
2022-08-27T17:15:05.875Z,27.97
2022-08-27T17:18:08.525Z,27.79
2022-08-27T17:21:11.069Z,27.59
2022-08-27T17:24:13.655Z,27.45
2022-08-27T17:27:17.905Z,27.30
2022-08-27T17:30:20.760Z,27.17
2022-08-27T17:33:27.770Z,27.10
2022-08-27T17:36:30.831Z,27.02
2022-08-27T17:39:33.253Z,26.88
2022-08-27T17:42:36.564Z,26.76
2022-08-27T17:45:38.926Z,26.66
2022-08-27T17:48:42.302Z,26.59
2022-08-27T17:51:48.623Z,26.52
2022-08-27T17:54:53.165Z,26.42
2022-08-27T17:57:55.477Z,26.40
2022-08-27T18:00:58.840Z,26.28
2022-08-27T18:04:02.136Z,26.22
2022-08-27T18:07:04.832Z,26.17
2022-08-27T18:10:08.265Z,26.12
2022-08-27T18:13:11.236Z,26.05
2022-08-27T18:16:13.899Z,25.94
2022-08-27T18:19:16.647Z,25.95
2022-08-27T18:22:19.308Z,25.91
2022-08-27T18:25:24.560Z,25.83
2022-08-27T18:28:28.789Z,25.70
2022-08-27T18:31:31.820Z,25.64
2022-08-27T18:34:34.495Z,25.56
2022-08-27T18:37:36.783Z,25.47
2022-08-27T18:40:42.424Z,25.50
2022-08-27T18:43:45.009Z,25.39
2022-08-27T18:46:47.703Z,25.34
2022-08-27T18:49:50.183Z,25.30
2022-08-27T18:52:54.270Z,25.24
2022-08-27T18:55:56.796Z,25.18
2022-08-27T18:58:59.450Z,25.10
2022-08-27T19:02:02.236Z,25.07
2022-08-27T19:05:06.905Z,25.12
2022-08-27T19:08:09.243Z,25.13
2022-08-27T19:11:11.976Z,25.07
2022-08-27T19:14:14.406Z,24.99
2022-08-27T19:17:24.063Z,25.04
2022-08-27T19:20:27.515Z,25.09
2022-08-27T19:23:30.229Z,25.13
2022-08-27T19:26:32.931Z,25.27
2022-08-27T19:29:35.518Z,25.35
2022-08-27T19:32:37.895Z,25.35
2022-08-27T19:35:42.227Z,25.34
2022-08-27T19:38:45.370Z,25.25
2022-08-27T19:41:48.050Z,25.17
2022-08-27T19:44:50.403Z,25.12
2022-08-27T19:47:53.124Z,25.00
2022-08-27T19:50:55.969Z,24.94
2022-08-27T19:53:58.638Z,24.95
2022-08-27T19:57:00.886Z,24.90
2022-08-27T20:00:04.293Z,24.82
2022-08-27T20:03:11.840Z,24.75
2022-08-27T20:06:14.572Z,24.68
2022-08-27T20:09:18.501Z,24.58
2022-08-27T20:12:21.795Z,24.47
2022-08-27T20:15:24.531Z,24.45
2022-08-27T20:18:27.734Z,24.46
2022-08-27T20:21:30.354Z,24.34
2022-08-27T20:24:32.976Z,24.22
2022-08-27T20:27:35.493Z,24.13
2022-08-27T20:30:40.020Z,24.09
2022-08-27T20:33:42.421Z,23.97
2022-08-27T20:36:45.424Z,23.87
2022-08-27T20:39:48.312Z,23.79
2022-08-27T20:42:51.054Z,23.70
2022-08-27T20:45:53.385Z,23.59
2022-08-27T20:48:56.530Z,23.55
2022-08-27T20:52:03.077Z,23.48
2022-08-27T20:55:07.113Z,23.45
2022-08-27T20:58:27.888Z,23.45
2022-08-27T21:01:31.512Z,23.40
2022-08-27T21:04:38.188Z,23.33
2022-08-27T21:07:40.984Z,23.25
2022-08-27T21:10:44.944Z,23.20
2022-08-27T21:13:56.043Z,23.20
2022-08-27T21:16:59.626Z,23.33
2022-08-27T21:20:02.659Z,23.26
2022-08-27T21:23:05.110Z,23.15
2022-08-27T21:26:10.052Z,23.14
2022-08-27T21:29:13.565Z,23.07
2022-08-27T21:32:16.897Z,23.00
2022-08-27T21:35:19.521Z,23.00
2022-08-27T21:38:22.176Z,22.95
2022-08-27T21:41:25.065Z,22.93
2022-08-27T21:44:28.136Z,22.93
2022-08-27T21:47:30.569Z,22.96
2022-08-27T21:50:33.236Z,22.94
2022-08-27T21:53:35.772Z,22.94
2022-08-27T21:56:38.360Z,22.93
2022-08-27T21:59:43.116Z,22.91
2022-08-27T22:02:45.735Z,22.87
2022-08-27T22:05:49.233Z,22.82
2022-08-27T22:08:51.575Z,22.78
2022-08-27T22:11:54.663Z,22.74
2022-08-27T22:14:56.947Z,22.67
2022-08-27T22:18:00.057Z,22.62
2022-08-27T22:21:03.122Z,22.60
2022-08-27T22:24:05.878Z,22.55
2022-08-27T22:27:08.257Z,22.50
2022-08-27T22:30:11.509Z,22.45
2022-08-27T22:33:14.223Z,22.47
2022-08-27T22:36:16.843Z,22.47
2022-08-27T22:39:19.180Z,22.46
2022-08-27T22:42:21.928Z,22.44
2022-08-27T22:45:24.741Z,22.39
2022-08-27T22:48:27.471Z,22.28
2022-08-27T22:51:29.932Z,22.22
2022-08-27T22:54:32.526Z,22.21
2022-08-27T22:57:35.664Z,22.14
2022-08-27T23:00:39.009Z,22.12
2022-08-27T23:03:41.412Z,22.13
2022-08-27T23:06:44.169Z,22.08
2022-08-27T23:09:46.555Z,22.10
2022-08-27T23:12:49.164Z,22.11
2022-08-27T23:15:51.638Z,22.10
2022-08-27T23:18:54.554Z,22.16
2022-08-27T23:21:59.373Z,22.22
2022-08-27T23:25:20.591Z,22.27
2022-08-27T23:28:23.494Z,22.27
2022-08-27T23:31:26.305Z,22.26
2022-08-27T23:34:28.608Z,22.17
2022-08-27T23:37:32.002Z,22.09
2022-08-27T23:40:34.387Z,22.00
2022-08-27T23:43:37.040Z,21.92
2022-08-27T23:46:39.658Z,21.91
2022-08-27T23:49:43.417Z,21.88
2022-08-27T23:52:45.748Z,21.88
2022-08-27T23:55:48.312Z,22.01
2022-08-27T23:58:50.632Z,22.20
